Terminal Aerodrome Forecast
Issued by NWS Tuscon, AZ

Home | Current Version | Previous Version | Text Only | Print | Product List | Glossary On
Versions: 1 2 3 4 5 6 7 8 9 10 11 12 13
000
FTUS45 KTWC 040534
TAFTUS
TAF
KTUS 040534Z 0406/0506 34005KT P6SM FEW120 BKN300
     FM040900 15006KT P6SM FEW120 BKN300
     FM041700 VRB06KT P6SM FEW090 SCT300
     FM042200 29009KT P6SM VCSH SCT110 BKN180
     FM050300 21008KT P6SM SCT120 BKN300=

USA.gov is the U.S. government's official web portal to all federal, state and local government web resources and services.